createdAt,value
2017-05-19T00:00:27.252Z,82.86
2017-05-19T00:01:39.537Z,82.76
2017-05-19T00:02:51.810Z,82.86
2017-05-19T00:04:04.372Z,83.05
2017-05-19T00:05:16.018Z,82.76
2017-05-19T00:06:28.572Z,82.82
2017-05-19T00:07:41.473Z,82.92
2017-05-19T00:08:54.018Z,83.05
2017-05-19T00:10:06.257Z,83.68
2017-05-19T00:11:18.522Z,84.2
2017-05-19T00:12:31.063Z,84.26
2017-05-19T00:13:43.897Z,84.26
2017-05-19T00:14:56.493Z,84.16
2017-05-19T00:16:09.066Z,84.35
2017-05-19T00:17:21.665Z,84.06
2017-05-19T00:18:33.955Z,84.35
2017-05-19T00:19:46.505Z,84.16
2017-05-19T00:20:59.071Z,84.26
2017-05-19T00:22:11.025Z,84.06
2017-05-19T00:23:23.613Z,84.64
2017-05-19T00:24:36.160Z,84.26
2017-05-19T00:25:48.708Z,84.16
2017-05-19T00:27:01.259Z,83.97
2017-05-19T00:28:13.848Z,84.16
2017-05-19T00:29:26.144Z,84.45
2017-05-19T00:30:38.738Z,84.06
2017-05-19T00:31:51.297Z,84.06
2017-05-19T00:33:03.858Z,84.16
2017-05-19T00:34:16.426Z,83.97
2017-05-19T00:35:28.705Z,84.35
2017-05-19T00:36:41.227Z,84.45
2017-05-19T00:37:53.838Z,84.16
2017-05-19T00:39:06.412Z,84.26
2017-05-19T00:40:18.663Z,84.35
2017-05-19T00:41:31.234Z,84.64
2017-05-19T00:42:43.806Z,85.31
2017-05-19T00:43:56.343Z,85.02
2017-05-19T00:45:08.623Z,85.31
2017-05-19T00:46:21.210Z,85.12
2017-05-19T00:47:33.485Z,85.21
2017-05-19T00:48:46.059Z,85.79
2017-05-19T00:49:58.328Z,85.6
2017-05-19T00:51:10.613Z,86.13
2017-05-19T00:52:22.867Z,86.13
2017-05-19T00:53:35.421Z,86.51
2017-05-19T00:54:47.985Z,86.51
2017-05-19T00:56:00.555Z,86.22
2017-05-19T00:57:12.774Z,86.22
2017-05-19T00:58:24.471Z,86.32
2017-05-19T00:59:37.059Z,86.51
2017-05-19T01:00:48.987Z,86.7
2017-05-19T01:02:01.576Z,86.61
2017-05-19T01:03:14.112Z,86.9
2017-05-19T01:04:26.379Z,86.32
2017-05-19T01:05:39.021Z,86.51
2017-05-19T01:06:51.584Z,86.9
2017-05-19T01:08:04.119Z,86.51
2017-05-19T01:09:16.382Z,86.7
2017-05-19T01:10:28.997Z,86.32
2017-05-19T01:11:41.528Z,86.51
2017-05-19T01:12:54.089Z,86.99
2017-05-19T01:14:06.371Z,86.61
2017-05-19T01:15:18.938Z,86.7
2017-05-19T01:16:31.183Z,86.8
2017-05-19T01:17:43.761Z,86.9
2017-05-19T01:18:56.308Z,86.9
2017-05-19T01:20:08.647Z,86.61
2017-05-19T01:21:21.185Z,87.27
2017-05-19T01:22:33.706Z,87.08
2017-05-19T01:23:46.577Z,86.9
2017-05-19T01:24:59.124Z,86.7
2017-05-19T01:26:11.399Z,86.99
2017-05-19T01:27:23.404Z,87.08
2017-05-19T01:28:35.985Z,86.99
2017-05-19T01:29:48.565Z,86.99
2017-05-19T01:31:01.142Z,87.66
2017-05-19T01:32:12.811Z,86.9
2017-05-19T01:33:25.053Z,87.08
2017-05-19T01:34:37.629Z,87.56
2017-05-19T01:35:49.600Z,87.08
2017-05-19T01:37:02.176Z,86.99
2017-05-19T01:38:14.485Z,86.99
2017-05-19T01:39:26.448Z,87.27
2017-05-19T01:40:39.002Z,87.27
2017-05-19T01:41:51.549Z,87.33
2017-05-19T01:43:04.167Z,87.47
2017-05-19T01:44:16.440Z,87.43
2017-05-19T01:45:29.287Z,87.52
2017-05-19T01:46:41.838Z,87.76
2017-05-19T01:47:54.408Z,87.33
2017-05-19T01:49:06.940Z,87.47
2017-05-19T01:50:18.871Z,87.04
2017-05-19T01:51:30.818Z,87.71
2017-05-19T01:52:43.365Z,87.62
2017-05-19T01:53:55.912Z,87.43
2017-05-19T01:55:08.510Z,87.52
2017-05-19T01:56:21.065Z,87.23
2017-05-19T01:57:33.612Z,87.52
2017-05-19T01:58:46.182Z,87.62
2017-05-19T01:59:58.436Z,87.52
2017-05-19T02:01:10.754Z,87.71
2017-05-19T02:02:23.321Z,87.81
2017-05-19T02:03:35.901Z,87.9
2017-05-19T02:04:48.437Z,87.9
2017-05-19T02:06:00.973Z,88
2017-05-19T02:07:13.535Z,87.9
2017-05-19T02:08:26.142Z,88
2017-05-19T02:09:38.435Z,88.19
2017-05-19T02:10:50.667Z,88.57
2017-05-19T02:12:03.262Z,88.48
2017-05-19T02:13:15.221Z,88.48
2017-05-19T02:14:27.487Z,88.48
2017-05-19T02:15:39.713Z,88.38
2017-05-19T02:16:52.297Z,88.57
2017-05-19T02:18:04.877Z,88.57
2017-05-19T02:19:16.527Z,88.57
2017-05-19T02:20:29.073Z,88.48
2017-05-19T02:21:41.667Z,88.86
2017-05-19T02:22:54.245Z,88.86
2017-05-19T02:24:06.546Z,89.05
2017-05-19T02:25:18.201Z,88.57
2017-05-19T02:26:30.454Z,88.48
2017-05-19T02:27:42.695Z,88.86
2017-05-19T02:28:55.298Z,88.76
2017-05-19T02:30:07.916Z,88.67
2017-05-19T02:31:20.529Z,88.95
2017-05-19T02:32:32.827Z,88.95
2017-05-19T02:33:45.379Z,88.72
2017-05-19T02:34:57.971Z,89.15
2017-05-19T02:36:10.501Z,89.15
2017-05-19T02:37:23.082Z,89.29
2017-05-19T02:38:35.355Z,89.53
2017-05-19T02:39:47.883Z,89.58
2017-05-19T02:41:00.126Z,89.29
2017-05-19T02:42:12.149Z,89.58
2017-05-19T02:43:24.417Z,89.48
2017-05-19T02:44:36.987Z,89.39
2017-05-19T02:45:49.606Z,89.58
2017-05-19T02:47:02.145Z,89.48
2017-05-19T02:48:14.424Z,89.48
2017-05-19T02:49:26.377Z,89.29
2017-05-19T02:50:38.996Z,89.29
2017-05-19T02:51:51.567Z,89.96
2017-05-19T02:53:04.156Z,90.06
2017-05-19T02:54:16.177Z,90.25
2017-05-19T02:55:28.722Z,90.06
2017-05-19T02:56:41.244Z,89.96
2017-05-19T02:57:53.833Z,89.96
2017-05-19T02:59:06.372Z,90.16
2017-05-19T03:00:18.313Z,90.53
2017-05-19T03:01:30.538Z,90.53
2017-05-19T03:02:43.117Z,90.73
2017-05-19T03:03:55.688Z,90.63
2017-05-19T03:05:07.925Z,90.53
2017-05-19T03:06:20.511Z,90.44
2017-05-19T03:07:32.186Z,90.82
2017-05-19T03:08:44.735Z,90.92
2017-05-19T03:09:57.302Z,90.44
2017-05-19T03:11:09.845Z,90.92
2017-05-19T03:12:22.344Z,91.02
2017-05-19T03:13:34.564Z,90.73
2017-05-19T03:14:47.138Z,91.02
2017-05-19T03:15:59.715Z,91.11
2017-05-19T03:17:11.952Z,91.11
2017-05-19T03:18:24.214Z,91.3
2017-05-19T03:19:36.735Z,91.11
2017-05-19T03:20:49.255Z,91.2
2017-05-19T03:22:01.495Z,91.49
2017-05-19T03:23:14.105Z,91.02
2017-05-19T03:24:26.674Z,90.92
2017-05-19T03:25:39.239Z,91.39
2017-05-19T03:26:51.799Z,91.39
2017-05-19T03:28:04.062Z,91.39
2017-05-19T03:29:16.033Z,91.39
2017-05-19T03:30:27.782Z,91.49
2017-05-19T03:31:40.057Z,91.39
2017-05-19T03:32:52.620Z,91.39
2017-05-19T03:34:05.241Z,91.3
2017-05-19T03:35:17.188Z,91.49
2017-05-19T03:36:29.752Z,91.88
2017-05-19T03:37:42.307Z,91.97
2017-05-19T03:38:54.869Z,91.3
2017-05-19T03:40:07.375Z,91.3
2017-05-19T03:41:19.044Z,91.88
2017-05-19T03:42:31.007Z,91.97
2017-05-19T03:43:43.562Z,91.88
2017-05-19T03:44:56.155Z,91.97
2017-05-19T03:46:08.449Z,92.07
2017-05-19T03:47:20.125Z,92.16
2017-05-19T03:48:32.694Z,91.97
2017-05-19T03:49:45.257Z,92.16
2017-05-19T03:50:57.795Z,91.97
2017-05-19T03:52:10.349Z,91.88
2017-05-19T03:53:22.926Z,91.88
2017-05-19T03:54:34.896Z,91.97
2017-05-19T03:55:47.762Z,91.68
2017-05-19T03:57:00.346Z,91.78
2017-05-19T03:58:12.628Z,91.68
2017-05-19T03:59:24.585Z,91.68
2017-05-19T04:00:37.145Z,91.68
2017-05-19T04:01:49.641Z,91.68
2017-05-19T04:03:02.221Z,91.68
2017-05-19T04:04:14.771Z,91.88
2017-05-19T04:05:26.411Z,91.88
2017-05-19T04:06:39.224Z,91.88
2017-05-19T04:07:51.829Z,91.88
2017-05-19T04:09:04.409Z,91.88
2017-05-19T04:10:16.373Z,92.16
2017-05-19T04:11:28.344Z,91.88
2017-05-19T04:12:40.889Z,91.78
2017-05-19T04:13:53.439Z,91.73
2017-05-19T04:15:05.978Z,91.73
2017-05-19T04:16:18.200Z,91.68
2017-05-19T04:17:30.746Z,91.73
2017-05-19T04:18:43.318Z,91.88
2017-05-19T04:19:55.882Z,91.88
2017-05-19T04:21:08.144Z,91.73
2017-05-19T04:22:20.406Z,92.21
2017-05-19T04:23:32.357Z,91.53
2017-05-19T04:24:44.916Z,91.73
2017-05-19T04:25:57.168Z,91.83
2017-05-19T04:27:09.404Z,92.21
2017-05-19T04:28:21.311Z,91.63
2017-05-19T04:29:33.887Z,91.83
2017-05-19T04:30:46.453Z,91.92
2017-05-19T04:31:58.997Z,91.44
2017-05-19T04:33:11.590Z,91.92
2017-05-19T04:34:23.280Z,91.73
2017-05-19T04:35:35.186Z,91.63
2017-05-19T04:36:47.761Z,91.92
2017-05-19T04:38:00.334Z,91.73
2017-05-19T04:39:12.298Z,91.73
2017-05-19T04:40:24.567Z,91.83
2017-05-19T04:41:37.117Z,91.3
2017-05-19T04:42:49.693Z,91.53
2017-05-19T04:44:02.254Z,91.49
2017-05-19T04:45:14.477Z,91.49
2017-05-19T04:46:26.139Z,91.58
2017-05-19T04:47:38.805Z,91.39
2017-05-19T04:48:51.346Z,91.49
2017-05-19T04:50:03.884Z,91.49
2017-05-19T04:51:15.256Z,91.58
2017-05-19T04:52:27.860Z,91.58
2017-05-19T04:53:40.423Z,91.49
2017-05-19T04:54:53.054Z,91.49
2017-05-19T04:56:05.290Z,90.82
2017-05-19T04:57:16.967Z,91.11
2017-05-19T04:58:29.506Z,91.49
2017-05-19T04:59:41.780Z,91.05
2017-05-19T05:00:54.342Z,90.72
2017-05-19T05:02:06.871Z,90.67
2017-05-19T05:03:18.808Z,90.39
2017-05-19T05:04:31.387Z,90
2017-05-19T05:05:44.006Z,90.48
2017-05-19T05:06:56.845Z,90.48
2017-05-19T05:08:09.379Z,89.81
2017-05-19T05:09:21.648Z,90.09
2017-05-19T05:10:34.214Z,89.62
2017-05-19T05:11:46.811Z,89.72
2017-05-19T05:12:59.358Z,89.81
2017-05-19T05:14:11.952Z,89.47
2017-05-19T05:15:24.584Z,89.09
2017-05-19T05:16:37.171Z,88.23
2017-05-19T05:17:49.722Z,88.42
2017-05-19T05:19:02.285Z,87.94
2017-05-19T05:20:14.216Z,87.74
2017-05-19T05:21:26.555Z,88.51
2017-05-19T05:22:39.107Z,87.65
2017-05-19T05:23:51.402Z,87.94
2017-05-19T05:25:03.998Z,87.55
2017-05-19T05:26:16.563Z,87.55
2017-05-19T05:27:29.132Z,87.65
2017-05-19T05:28:41.779Z,87.5
2017-05-19T05:29:54.056Z,87.79
2017-05-19T05:31:06.022Z,86.93
2017-05-19T05:32:17.974Z,87.41
2017-05-19T05:33:30.481Z,87.12
2017-05-19T05:34:43.017Z,86.54
2017-05-19T05:35:55.560Z,86.54
2017-05-19T05:37:08.119Z,86.64
2017-05-19T05:38:19.775Z,86.64
2017-05-19T05:39:31.405Z,86.64
2017-05-19T05:40:43.988Z,86.64
2017-05-19T05:41:56.239Z,86.68
2017-05-19T05:43:08.173Z,86.97
2017-05-19T05:44:19.795Z,86.49
2017-05-19T05:45:32.365Z,86.88
2017-05-19T05:46:44.918Z,86.68
2017-05-19T05:47:57.490Z,86.58
2017-05-19T05:49:09.462Z,86.49
2017-05-19T05:50:21.756Z,86.21
2017-05-19T05:51:34.352Z,86.49
2017-05-19T05:52:46.948Z,86.58
2017-05-19T05:53:59.225Z,86.21
2017-05-19T05:55:11.470Z,86.3
2017-05-19T05:56:23.753Z,85.44
2017-05-19T05:57:36.324Z,86.15
2017-05-19T05:58:48.626Z,85.86
2017-05-19T06:00:01.183Z,85.38
2017-05-19T06:01:13.401Z,85.48
2017-05-19T06:02:25.447Z,84.71
2017-05-19T06:03:37.417Z,85.1
2017-05-19T06:04:50.016Z,84.91
2017-05-19T06:06:02.653Z,84.85
2017-05-19T06:07:14.276Z,85.24
2017-05-19T06:08:25.927Z,85.33
2017-05-19T06:09:38.490Z,84.56
2017-05-19T06:10:51.053Z,84.85
2017-05-19T06:12:03.581Z,83.89
2017-05-19T06:13:15.534Z,84.6
2017-05-19T06:14:28.103Z,83.74
2017-05-19T06:15:40.696Z,83.45
2017-05-19T06:16:52.959Z,84.12
2017-05-19T06:18:05.205Z,83.59
2017-05-19T06:19:17.160Z,83.49
2017-05-19T06:20:29.421Z,83.69
2017-05-19T06:21:41.952Z,82.48
2017-05-19T06:22:54.546Z,80.65
2017-05-19T06:24:06.822Z,81.17
2017-05-19T06:25:18.462Z,80.3
2017-05-19T06:26:31.036Z,80.15
2017-05-19T06:27:43.586Z,78.9
2017-05-19T06:28:56.175Z,79.03
2017-05-19T06:30:08.444Z,78.21
2017-05-19T06:31:20.076Z,78.21
2017-05-19T06:32:32.637Z,76.8
2017-05-19T06:33:44.986Z,75.49
2017-05-19T06:34:57.233Z,75.34
2017-05-19T06:36:09.193Z,75.67
2017-05-19T06:37:21.155Z,74.93
2017-05-19T06:38:33.111Z,74.38
2017-05-19T06:39:45.658Z,73.46
2017-05-19T06:40:58.259Z,72.24
2017-05-19T06:42:10.847Z,71.01
2017-05-19T06:43:23.380Z,68.63
2017-05-19T06:44:35.722Z,68.47
2017-05-19T06:45:48.274Z,67.63
2017-05-19T06:47:00.516Z,67.66
2017-05-19T06:48:12.190Z,66.34
2017-05-19T06:49:24.456Z,63.17
2017-05-19T06:50:36.728Z,62.32
2017-05-19T06:51:49.290Z,61.65
2017-05-19T06:53:01.868Z,61.8
2017-05-19T06:54:14.438Z,61.22
2017-05-19T06:55:26.386Z,55.22
2017-05-19T06:56:38.663Z,55.22
2017-05-19T06:57:51.258Z,55.54
2017-05-19T06:59:03.829Z,55.83
2017-05-19T07:00:16.370Z,54.89
2017-05-19T07:01:28.638Z,53.94
2017-05-19T07:02:41.261Z,53.65
2017-05-19T07:03:53.848Z,52.12
2017-05-19T07:05:05.806Z,52.12
2017-05-19T07:06:18.049Z,51.26
2017-05-19T07:07:30.646Z,50.68
2017-05-19T07:08:42.934Z,50.02
2017-05-19T07:09:55.486Z,50.6
2017-05-19T07:11:07.799Z,52
2017-05-19T07:12:19.158Z,48.49
2017-05-19T07:13:31.427Z,51.51
2017-05-19T07:14:44.025Z,51.61
2017-05-19T07:15:56.547Z,50.95
2017-05-19T07:17:09.118Z,48.51
2017-05-19T07:18:21.375Z,47.63
2017-05-19T07:19:32.453Z,46.95
2017-05-19T07:20:44.756Z,48.8
2017-05-19T07:21:57.302Z,49.51
2017-05-19T07:23:09.273Z,47.66
2017-05-19T07:24:20.963Z,47.58
2017-05-19T07:25:32.915Z,47.58
2017-05-19T07:26:45.160Z,47.09
2017-05-19T07:27:57.119Z,47.48
2017-05-19T07:29:09.471Z,48.38
2017-05-19T07:30:21.801Z,48.8
2017-05-19T07:31:34.066Z,46.26
2017-05-19T07:32:46.640Z,46.16
2017-05-19T07:33:58.672Z,44.79
2017-05-19T07:35:11.276Z,45.47
2017-05-19T07:36:23.864Z,45.57
2017-05-19T07:37:35.900Z,45.3
2017-05-19T07:38:48.463Z,44.91
2017-05-19T07:40:01.045Z,44.42
2017-05-19T07:41:13.641Z,46.97
2017-05-19T07:42:25.925Z,46.01
2017-05-19T07:43:38.821Z,46.4
2017-05-19T07:44:51.442Z,46.2
2017-05-19T07:46:03.445Z,44.54
2017-05-19T07:47:15.386Z,44.54
2017-05-19T07:48:27.054Z,45.42
2017-05-19T07:49:39.377Z,44.54
2017-05-19T07:50:51.973Z,46.3
2017-05-19T07:52:04.301Z,45.03
2017-05-19T07:53:16.591Z,44.24
2017-05-19T07:54:28.893Z,44.54
2017-05-19T07:55:41.156Z,45.23
2017-05-19T07:56:53.161Z,45.44
2017-05-19T07:58:05.734Z,44.66
2017-05-19T07:59:18.029Z,44.76
2017-05-19T08:00:30.608Z,45.05
2017-05-19T08:01:42.921Z,44.78
2017-05-19T08:02:55.244Z,43.9
2017-05-19T08:04:07.884Z,42.43
2017-05-19T08:05:19.849Z,43.02
2017-05-19T08:06:32.121Z,42.55
2017-05-19T08:07:44.495Z,42.52
2017-05-19T08:08:57.066Z,43.04
2017-05-19T08:10:09.335Z,42.94
2017-05-19T08:11:21.035Z,42.65
2017-05-19T08:12:33.605Z,42.55
2017-05-19T08:13:45.594Z,42.55
2017-05-19T08:14:57.865Z,42.65
2017-05-19T08:16:10.442Z,43.94
2017-05-19T08:17:22.743Z,43.13
2017-05-19T08:18:34.756Z,42.96
2017-05-19T08:19:47.027Z,42.57
2017-05-19T08:20:59.395Z,43.45
2017-05-19T08:22:11.699Z,43.76
2017-05-19T08:23:24.361Z,43.86
2017-05-19T08:24:36.941Z,42.8
2017-05-19T08:25:49.212Z,41.71
2017-05-19T08:27:01.771Z,41.9
2017-05-19T08:28:14.346Z,41.92
2017-05-19T08:29:26.617Z,41.21
2017-05-19T08:30:38.620Z,40.84
2017-05-19T08:31:50.917Z,40.64
2017-05-19T08:33:03.212Z,41.53
2017-05-19T08:34:15.475Z,41.41
2017-05-19T08:35:28.102Z,41.9
2017-05-19T08:36:40.074Z,41.29
2017-05-19T08:37:52.919Z,41.49
2017-05-19T08:39:04.934Z,41.49
2017-05-19T08:40:16.897Z,41.29
2017-05-19T08:41:28.885Z,41.17
2017-05-19T08:42:40.576Z,42.25
2017-05-19T08:43:53.175Z,42.72
2017-05-19T08:45:05.789Z,43.12
2017-05-19T08:46:17.768Z,44.38
2017-05-19T08:47:30.039Z,43.48
2017-05-19T08:48:42.351Z,44.66
2017-05-19T08:49:54.959Z,44.46
2017-05-19T08:51:07.268Z,43.76
2017-05-19T08:52:18.988Z,43.76
2017-05-19T08:53:30.992Z,43.84
2017-05-19T08:54:43.587Z,43.63
2017-05-19T08:55:56.177Z,43.93
2017-05-19T08:57:08.797Z,43.93
2017-05-19T08:58:20.775Z,43.63
2017-05-19T08:59:32.998Z,44.62
2017-05-19T09:00:44.987Z,43.93
2017-05-19T09:01:57.282Z,44.32
2017-05-19T09:03:09.559Z,44.62
2017-05-19T09:04:21.541Z,45.01
2017-05-19T09:05:34.126Z,45.3
2017-05-19T09:06:46.408Z,44.42
2017-05-19T09:07:58.962Z,43.44
2017-05-19T09:09:11.583Z,43.46
2017-05-19T09:10:23.833Z,43.46
2017-05-19T09:11:36.154Z,43.46
2017-05-19T09:12:48.421Z,42.58
2017-05-19T09:14:00.968Z,42.29
2017-05-19T09:15:12.945Z,42.5
2017-05-19T09:16:25.585Z,42.7
2017-05-19T09:17:37.597Z,41.5
2017-05-19T09:18:50.200Z,42.5
2017-05-19T09:20:02.793Z,43.68
2017-05-19T09:21:14.765Z,42.02
2017-05-19T09:22:27.387Z,42.72
2017-05-19T09:23:39.982Z,43.21
2017-05-19T09:24:52.589Z,42.62
2017-05-19T09:26:04.884Z,41.55
2017-05-19T09:27:17.165Z,42.23
2017-05-19T09:28:29.695Z,41.86
2017-05-19T09:29:41.970Z,41.84
2017-05-19T09:30:54.241Z,41.55
2017-05-19T09:32:06.780Z,41.35
2017-05-19T09:33:19.068Z,42.6
2017-05-19T09:34:31.346Z,43.38
2017-05-19T09:35:43.584Z,41.55
2017-05-19T09:36:55.563Z,41.74
2017-05-19T09:38:07.544Z,43.38
2017-05-19T09:39:19.216Z,43.8
2017-05-19T09:40:31.834Z,43.02
2017-05-19T09:41:44.097Z,44.09
2017-05-19T09:42:56.660Z,44.09
2017-05-19T09:44:09.250Z,42.23
2017-05-19T09:45:21.511Z,42.52
2017-05-19T09:46:34.093Z,43.43
2017-05-19T09:47:46.660Z,42.55
2017-05-19T09:48:59.254Z,41.98
2017-05-19T09:50:11.895Z,41.19
2017-05-19T09:51:23.866Z,40.8
2017-05-19T09:52:35.859Z,40.82
2017-05-19T09:53:48.468Z,41.21
2017-05-19T09:55:01.084Z,40.74
2017-05-19T09:56:12.752Z,41.14
2017-05-19T09:57:25.302Z,40.53
2017-05-19T09:58:37.266Z,40.25
2017-05-19T09:59:49.879Z,39.47
2017-05-19T10:01:02.159Z,39.66
2017-05-19T10:02:14.459Z,40.27
2017-05-19T10:03:27.072Z,40.76
2017-05-19T10:04:39.343Z,42.14
2017-05-19T10:05:51.639Z,41.74
2017-05-19T10:07:04.196Z,42.04
2017-05-19T10:08:16.187Z,40.29
2017-05-19T10:09:28.484Z,39.82
2017-05-19T10:10:41.050Z,39.32
2017-05-19T10:11:53.344Z,38.66
2017-05-19T10:13:05.940Z,38.18
2017-05-19T10:14:18.238Z,38.49
2017-05-19T10:15:30.511Z,37.43
2017-05-19T10:16:43.104Z,36.35
2017-05-19T10:17:55.706Z,36.46
2017-05-19T10:19:07.987Z,36.66
2017-05-19T10:20:19.990Z,35.68
2017-05-19T10:21:32.264Z,35.58
2017-05-19T10:22:44.861Z,35.6
2017-05-19T10:23:57.463Z,35.52
2017-05-19T10:25:09.776Z,35.12
2017-05-19T10:26:21.796Z,35.81
2017-05-19T10:27:34.099Z,35.73
2017-05-19T10:28:46.679Z,34.64
2017-05-19T10:29:58.933Z,35.15
2017-05-19T10:31:10.602Z,35.55
2017-05-19T10:32:22.300Z,35.35
2017-05-19T10:33:34.328Z,34.48
2017-05-19T10:34:46.585Z,34.1
2017-05-19T10:35:59.163Z,34.1
2017-05-19T10:37:11.462Z,34.01
2017-05-19T10:38:24.036Z,33.73
2017-05-19T10:39:35.751Z,33.64
2017-05-19T10:40:48.375Z,34.23
2017-05-19T10:42:00.942Z,34.63
2017-05-19T10:43:12.613Z,34.25
2017-05-19T10:44:24.942Z,34.05
2017-05-19T10:45:36.981Z,33.97
2017-05-19T10:46:49.519Z,33.09
2017-05-19T10:48:01.490Z,31.81
2017-05-19T10:49:14.037Z,32.02
2017-05-19T10:50:26.673Z,31.32
2017-05-19T10:51:38.962Z,32.42
2017-05-19T10:52:51.580Z,31.32
2017-05-19T10:54:04.212Z,31.44
2017-05-19T10:55:15.900Z,31.54
2017-05-19T10:56:28.168Z,32.05
2017-05-19T10:57:40.468Z,31.85
2017-05-19T10:58:53.042Z,30.87
2017-05-19T11:00:05.606Z,30.87
2017-05-19T11:01:18.227Z,30.87
2017-05-19T11:02:30.876Z,30.59
2017-05-19T11:03:43.218Z,30.79
2017-05-19T11:04:55.851Z,30.6
2017-05-19T11:06:08.166Z,30.09
2017-05-19T11:07:20.724Z,30.21
2017-05-19T11:08:33.032Z,30.91
2017-05-19T11:09:45.677Z,30.91
2017-05-19T11:10:58.272Z,30.73
2017-05-19T11:12:10.609Z,30.15
2017-05-19T11:13:23.211Z,29.55
2017-05-19T11:14:35.531Z,29.57
2017-05-19T11:15:47.526Z,29.27
2017-05-19T11:17:00.161Z,30.05
2017-05-19T11:18:12.796Z,29.17
2017-05-19T11:19:25.159Z,30.18
2017-05-19T11:20:37.444Z,29.67
2017-05-19T11:21:50.061Z,27.79
2017-05-19T11:23:02.396Z,28.78
2017-05-19T11:24:14.998Z,29.18
2017-05-19T11:25:27.263Z,27.99
2017-05-19T11:26:39.566Z,28.39
2017-05-19T11:27:51.552Z,28.77
2017-05-19T11:29:03.882Z,27.59
2017-05-19T11:30:15.905Z,27.58
2017-05-19T11:31:28.236Z,27.87
2017-05-19T11:32:40.850Z,28.67
2017-05-19T11:33:53.397Z,27.67
2017-05-19T11:35:05.745Z,27.29
2017-05-19T11:36:18.082Z,27.49
2017-05-19T11:37:30.658Z,27.59
2017-05-19T11:38:42.957Z,26.79
2017-05-19T11:39:55.525Z,27.67
2017-05-19T11:41:07.790Z,27.78
2017-05-19T11:42:20.121Z,27.79
2017-05-19T11:43:32.757Z,27.5
2017-05-19T11:44:45.059Z,26.9
2017-05-19T11:45:57.370Z,27.3
2017-05-19T11:47:09.955Z,26.52
2017-05-19T11:48:21.643Z,26.63
2017-05-19T11:49:33.974Z,26.23
2017-05-19T11:50:45.984Z,26.43
2017-05-19T11:51:57.712Z,26.94
2017-05-19T11:53:09.975Z,27.44
2017-05-19T11:54:21.979Z,27.03
2017-05-19T11:55:34.569Z,25.43
2017-05-19T11:56:46.542Z,25.23
2017-05-19T11:57:58.561Z,25.23
2017-05-19T11:59:10.257Z,25.23
2017-05-19T12:00:22.828Z,25.65
2017-05-19T12:01:35.116Z,26.04
2017-05-19T12:02:47.072Z,25.46
2017-05-19T12:03:59.643Z,25.63
2017-05-19T12:05:11.935Z,26.14
2017-05-19T12:06:23.932Z,25.63
2017-05-19T12:07:36.583Z,25.24
2017-05-19T12:08:48.862Z,24.86
2017-05-19T12:10:01.226Z,24.86
2017-05-19T12:11:13.514Z,24.75
2017-05-19T12:12:26.091Z,25.05
2017-05-19T12:13:38.457Z,24.85
2017-05-19T12:14:50.778Z,24.95
2017-05-19T12:16:03.087Z,25.05
2017-05-19T12:17:15.380Z,25.05
2017-05-19T12:18:27.966Z,25.24
2017-05-19T12:19:40.261Z,24.76
2017-05-19T12:20:52.566Z,25.36
2017-05-19T12:22:04.831Z,26.15
2017-05-19T12:23:17.433Z,26.54
2017-05-19T12:24:28.899Z,25.36
2017-05-19T12:25:41.469Z,24.86
2017-05-19T12:26:54.030Z,24.36
2017-05-19T12:28:06.616Z,24.47
2017-05-19T12:29:18.311Z,24.87
2017-05-19T12:30:30.901Z,24.87
2017-05-19T12:31:43.527Z,24.16
2017-05-19T12:32:55.228Z,24.07
2017-05-19T12:34:07.570Z,24.07
2017-05-19T12:35:19.563Z,24.37
2017-05-19T12:36:32.181Z,24.47
2017-05-19T12:37:44.742Z,24.47
2017-05-19T12:38:56.755Z,23.97
2017-05-19T12:40:09.010Z,24.07
2017-05-19T12:41:21.296Z,24.27
2017-05-19T12:42:33.646Z,25.07
2017-05-19T12:43:45.653Z,24.87
2017-05-19T12:44:57.925Z,25.57
2017-05-19T12:46:10.258Z,26.37
2017-05-19T12:47:22.898Z,24.86
2017-05-19T12:48:35.516Z,23.96
2017-05-19T12:49:47.807Z,24.85
2017-05-19T12:50:59.487Z,24.25
2017-05-19T12:52:11.480Z,25.52
2017-05-19T12:53:24.071Z,24.82
2017-05-19T12:54:36.086Z,24.91
2017-05-19T12:55:48.388Z,24.91
2017-05-19T12:57:00.641Z,24.62
2017-05-19T12:58:12.899Z,25.21
2017-05-19T12:59:24.528Z,25.12
2017-05-19T13:00:36.891Z,25.32
2017-05-19T13:01:48.618Z,25.21
2017-05-19T13:03:01.250Z,25.92
2017-05-19T13:04:13.235Z,24.32
2017-05-19T13:05:25.531Z,24.33
2017-05-19T13:06:37.533Z,23.84
2017-05-19T13:07:49.799Z,24.33
2017-05-19T13:09:02.098Z,23.93
2017-05-19T13:10:14.357Z,23.83
2017-05-19T13:11:26.635Z,23.64
2017-05-19T13:12:39.256Z,24.02
2017-05-19T13:13:51.577Z,23.93
2017-05-19T13:15:04.152Z,24.62
2017-05-19T13:16:16.146Z,25.38
2017-05-19T13:17:28.766Z,24.19
2017-05-19T13:18:41.329Z,24.18
2017-05-19T13:19:53.526Z,26.17
2017-05-19T13:21:05.831Z,25.46
2017-05-19T13:22:18.453Z,26.25
2017-05-19T13:23:31.082Z,25.55
2017-05-19T13:24:43.391Z,25.15
2017-05-19T13:25:55.661Z,24.85
2017-05-19T13:27:07.911Z,25.65
2017-05-19T13:28:20.197Z,25.45
2017-05-19T13:29:32.484Z,25.25
2017-05-19T13:30:44.179Z,25.25
2017-05-19T13:31:56.465Z,24.55
2017-05-19T13:33:08.738Z,25.05
2017-05-19T13:34:21.016Z,24.85
2017-05-19T13:35:33.303Z,24.55
2017-05-19T13:36:45.601Z,25.04
2017-05-19T13:37:58.170Z,24.74
2017-05-19T13:39:10.176Z,26.33
2017-05-19T13:40:22.772Z,25.62
2017-05-19T13:41:35.061Z,26.72
2017-05-19T13:42:47.659Z,26.92
2017-05-19T13:43:59.626Z,27.91
2017-05-19T13:45:12.180Z,26.42
2017-05-19T13:46:24.444Z,27.21
2017-05-19T13:47:37.064Z,27.81
2017-05-19T13:48:49.066Z,27.51
2017-05-19T13:50:01.668Z,25.91
2017-05-19T13:51:14.282Z,25.51
2017-05-19T13:52:26.604Z,25.4
2017-05-19T13:53:38.977Z,26.4
2017-05-19T13:54:51.258Z,27.48
2017-05-19T13:56:03.537Z,26.2
2017-05-19T13:57:15.805Z,26.29
2017-05-19T13:58:28.103Z,26.09
2017-05-19T13:59:40.746Z,25.8
2017-05-19T14:00:53.044Z,26.98
2017-05-19T14:02:05.648Z,27.47
2017-05-19T14:03:18.229Z,25.18
2017-05-19T14:04:30.790Z,25.38
2017-05-19T14:05:43.320Z,25.97
2017-05-19T14:06:55.656Z,26.56
2017-05-19T14:08:07.369Z,26.46
2017-05-19T14:09:19.918Z,26.46
2017-05-19T14:10:32.496Z,26.48
2017-05-19T14:11:45.085Z,26.48
2017-05-19T14:12:57.354Z,27.08
2017-05-19T14:14:09.623Z,26.48
2017-05-19T14:15:21.625Z,26.18
2017-05-19T14:16:34.227Z,25.98
2017-05-19T14:17:46.212Z,26.38
2017-05-19T14:18:58.756Z,26.87
2017-05-19T14:20:11.355Z,26.78
2017-05-19T14:21:23.634Z,27.66
2017-05-19T14:22:36.199Z,27.95
2017-05-19T14:23:48.523Z,27.26
2017-05-19T14:25:01.122Z,27.64
2017-05-19T14:26:13.711Z,27.34
2017-05-19T14:27:26.003Z,27.26
2017-05-19T14:28:38.618Z,28.23
2017-05-19T14:29:50.853Z,27.25
2017-05-19T14:31:03.152Z,26.34
2017-05-19T14:32:15.138Z,27.53
2017-05-19T14:33:27.702Z,27.63
2017-05-19T14:34:40.323Z,27.73
2017-05-19T14:35:52.008Z,28.32
2017-05-19T14:37:04.305Z,27.53
2017-05-19T14:38:16.885Z,27.63
2017-05-19T14:39:29.470Z,27.33
2017-05-19T14:40:41.427Z,27.42
2017-05-19T14:41:53.410Z,29.69
2017-05-19T14:43:05.727Z,30.27
2017-05-19T14:44:17.721Z,30.76
2017-05-19T14:45:29.695Z,29.65
2017-05-19T14:46:41.974Z,29.93
2017-05-19T14:47:54.517Z,29.23
2017-05-19T14:49:07.086Z,29.99
2017-05-19T14:50:18.783Z,29.88
2017-05-19T14:51:30.430Z,30.45
2017-05-19T14:52:42.677Z,30.65
2017-05-19T14:53:54.968Z,30.91
2017-05-19T14:55:07.586Z,31.88
2017-05-19T14:56:19.854Z,32.26
2017-05-19T14:57:32.130Z,32.56
2017-05-19T14:58:44.374Z,32.34
2017-05-19T14:59:56.970Z,32.84
2017-05-19T15:01:08.899Z,32.71
2017-05-19T15:02:21.160Z,32.61
2017-05-19T15:03:33.132Z,32.2
2017-05-19T15:04:44.810Z,32.78
2017-05-19T15:05:57.391Z,33.26
2017-05-19T15:07:09.947Z,34.34
2017-05-19T15:08:21.934Z,35.31
2017-05-19T15:09:34.167Z,34.52
2017-05-19T15:10:45.835Z,35
2017-05-19T15:11:58.135Z,35.57
2017-05-19T15:13:09.806Z,35.08
2017-05-19T15:14:22.096Z,35.25
2017-05-19T15:15:34.346Z,35.93
2017-05-19T15:16:46.635Z,37
2017-05-19T15:17:58.883Z,36.12
2017-05-19T15:19:11.153Z,37.37
2017-05-19T15:20:23.149Z,37.27
2017-05-19T15:21:35.754Z,37.55
2017-05-19T15:22:47.442Z,37.16
2017-05-19T15:23:59.723Z,37.95
2017-05-19T15:25:11.708Z,38.22
2017-05-19T15:26:24.281Z,37.14
2017-05-19T15:27:35.996Z,37.04
2017-05-19T15:28:48.523Z,38.02
2017-05-19T15:30:01.116Z,38.2
2017-05-19T15:31:12.813Z,39.47
2017-05-19T15:32:24.459Z,38.4
2017-05-19T15:33:36.759Z,38.2
2017-05-19T15:34:49.343Z,39.08